• Join FlightAware (Why Join?)
  • Login
  • US Flag 
09:58PM EST


 

Airport Tracker/Info


-or-


 

Live Flight TrackerFlight Track Log ✈ EGF443G ✈ 20-Mar-2012 ✈ KGGG - KDFW

Flight Track Log - Related Links

Times and Time Zones

All times are in EDT time to prevent confusion due to time zone crossing. See the EGF443G flight status page for this flight to view local times or setup timezone preferences in your user account.

Time Position Orientation Groundspeed Altitude Reporting Facility
EDT Latitude Longitude Course Direction KTS MPH feet Rate Location/Type
09:13AM 32.3915 -94.7438 189° South  Level Estimated
09:14AM 32.4086 -94.8184 154° Southeast  Level Estimated
09:15AM 32.3064 -94.7589 277° West 253 291 8,300  Level Fort Worth Center
09:16AM 32.3169 -94.8544 281° West 276 318 10,000 1,320 Climbing Fort Worth Center
09:17AM 32.3311 -94.9425 281° West 286 329 11,000 1,260 Climbing Fort Worth Center
09:18AM 32.3500 -95.0550 275° West 340 391 12,600 1,980 Climbing Fort Worth Center
09:19AM 32.3583 -95.1706 261° West 356 410 15,000 1,680 Climbing Fort Worth Center
09:20AM 32.3436 -95.2839 310° West 353 406 16,000 480 Climbing Fort Worth Center
09:21AM 32.4164 -95.3881 328° Northwest 375 432 16,000  Level Fort Worth Center
09:22AM 32.5156 -95.4622 328° Northwest 387 445 16,000  Level Fort Worth Center
09:23AM 32.6169 -95.5364 327° Northwest 409 471 16,000  Level Fort Worth Center
09:24AM 32.7119 -95.6086 327° Northwest 414 476 16,000  Level Fort Worth Center
09:25AM 32.8194 -95.6903 328° Northwest 415 478 16,000  Level Fort Worth Center
09:27AM 33.0261 -95.8425 340° North 437 503 16,000  Level Fort Worth Center
09:28AM 33.1183 -95.8831 346° North 404 465 16,000 -120 Level Fort Worth Center
09:29AM 33.1919 -95.9056 327° Northwest 393 452 15,900 -120 Descending FAA TRACON SMA TRACON (SMA)
09:29AM 33.2508 -95.9519 320° Northwest 399 459 15,900  Level FAA TRACON SMA TRACON (SMA)
09:30AM 33.3103 -96.0108 321° Northwest 404 465 15,900  Level FAA TRACON SMA TRACON (SMA)
09:31AM 33.3689 -96.0678 321° Northwest 400 460 15,900  Level FAA TRACON SMA TRACON (SMA)
09:31AM 33.4289 -96.1261 320° Northwest 398 458 15,900  Level FAA TRACON SMA TRACON (SMA)
09:32AM 33.4806 -96.1786 281° West 398 458 15,900  Level FAA TRACON SMA TRACON (SMA)
09:33AM 33.4931 -96.2536 246° West 364 419 15,900  Level FAA TRACON SMA TRACON (SMA)
09:33AM 33.4719 -96.3108 231° Southwest 305 351 15,900  Level FAA TRACON SMA TRACON (SMA)
09:34AM 33.4372 -96.3614 224° Southwest 279 321 15,900 -480 Level FAA TRACON SMA TRACON (SMA)
09:35AM 33.4011 -96.4036 224° Southwest 261 300 15,300 -1,140 Descending FAA TRACON SMA TRACON (SMA)
09:35AM 33.3694 -96.4406 224° Southwest 256 295 14,400 -1,380 Descending FAA TRACON SMA TRACON (SMA)
09:36AM 33.3358 -96.4789 225° Southwest 238 274 13,500 -1,440 Descending FAA TRACON SMA TRACON (SMA)
09:37AM 33.3047 -96.5167 225° Southwest 229 264 12,500 -1,380 Descending FAA TRACON SMA TRACON (SMA)
09:37AM 33.2756 -96.5511 224° Southwest 240 276 11,700 -1,260 Descending FAA TRACON SMA TRACON (SMA)
09:38AM 33.2428 -96.5894 225° Southwest 239 275 10,900 -600 Descending FAA TRACON SMA TRACON (SMA)
09:39AM 33.2086 -96.6306 226° Southwest 252 290 10,900  Level FAA TRACON SMA TRACON (SMA)
09:39AM 33.1786 -96.6672 224° Southwest 251 289 10,900  Level FAA TRACON SMA TRACON (SMA)
09:40AM 33.1433 -96.7072 225° Southwest 252 290 10,900  Level FAA TRACON SMA TRACON (SMA)
09:41AM 33.1042 -96.7533 224° Southwest 258 297 10,900  Level FAA TRACON SMA TRACON (SMA)
09:41AM 33.0767 -96.7850 224° Southwest 256 295 10,900  Level FAA TRACON SMA TRACON (SMA)
09:42AM 33.0422 -96.8250 224° Southwest 247 284 10,900  Level FAA TRACON SMA TRACON (SMA)
09:43AM 33.0131 -96.8586 223° Southwest 205 236 10,900  Level FAA TRACON SMA TRACON (SMA)
09:43AM 32.9875 -96.8872 197° South 205 236 10,900 -120 Level FAA TRACON SMA TRACON (SMA)
09:44AM 32.9481 -96.9019 180° South 226 260 10,800 -900 Descending FAA TRACON SMA TRACON (SMA)
09:45AM 32.9031 -96.9022 182° South 236 272 9,700 -1,560 Descending FAA TRACON SMA TRACON (SMA)
09:45AM 32.8622 -96.9039 181° South 238 274 8,800 -1,500 Descending FAA TRACON SMA TRACON (SMA)
09:46AM 32.8142 -96.9053 181° South 250 288 7,700 -1,380 Descending FAA TRACON SMA TRACON (SMA)
09:47AM 32.7725 -96.9058 181° South 240 276 7,000 -1,080 Descending FAA TRACON SMA TRACON (SMA)
09:47AM 32.7283 -96.9067 181° South 228 262 6,300 -840 Descending FAA TRACON SMA TRACON (SMA)
09:48AM 32.6842 -96.9075 180° South 227 261 5,900 -300 Descending FAA TRACON SMA TRACON (SMA)
09:49AM 32.6447 -96.9078 198° South 232 267 5,900  Level FAA TRACON SMA TRACON (SMA)
09:49AM 32.6042 -96.9236 271° West 242 278 5,900  Level FAA TRACON SMA TRACON (SMA)
09:50AM 32.6050 -96.9753 322° Northwest 237 273 5,900 -300 Level FAA TRACON SMA TRACON (SMA)
09:51AM 32.6358 -97.0042 351° North 235 270 5,500 -1,080 Descending FAA TRACON SMA TRACON (SMA)
09:51AM 32.6744 -97.0114 North 201 231 4,500 -1,320 Descending FAA TRACON SMA TRACON (SMA)
09:52AM 32.7086 -97.0100 North 175 201 3,800 -840 Descending FAA TRACON SMA TRACON (SMA)
09:53AM 32.7361 -97.0094 360° North 160 184 3,400 -780 Descending FAA TRACON SMA TRACON (SMA)
09:53AM 32.7661 -97.0094 360° North 154 177 2,800 -960 Descending FAA TRACON SMA TRACON (SMA)
09:54AM 32.7964 -97.0094 360° North 158 182 2,100 -840 Descending FAA TRACON SMA TRACON (SMA)
09:55AM 32.8189 -97.0094 North 130 150 1,700 -720 Descending FAA TRACON SMA TRACON (SMA)
09:55AM 32.8436 -97.0092 359° North 128 147 1,200 -780 Descending FAA TRACON SMA TRACON (SMA)
09:56AM 32.8686 -97.0094 320° Northwest 131 151 700 -780 Descending FAA TRACON SMA TRACON (SMA)
10:03AM 33.2206 -97.3674 139° Southeast  Level Estimated
10:04AM 33.1710 -97.3167 139° Southeast  Level Estimated
10:05AM 33.1213 -97.2660 140° Southeast  Level Estimated
10:06AM 33.0716 -97.2154 140° Southeast  Level Estimated